x

South Brooks (46132) Wave Buoy

3:00 - Sat 23rd Jul 2016 All times are PDT. -7 hours from GMT.

  • Sig Wave height 3.6ft
  • Peak Period 14s
  • Wind
    9mph
  • Sea Temp 61°f
  • Air Temp 63°f
  • Sea Pressure 1025.2mb
  • South Brooks
  • South Brooks

More Historic Weather Station data

Upgrade to MSW Pro to gain access to the past 30 days of data for over 8000 Wavebouys and Weather Stations around the globe.

Join Pro

Comparision Forecast

View Surf forecast
   
sam. 07/23 3:00 3.5ft 14s 9
mph
1025.2mb 61f 63f
2:00 3.5ft 14s 9 11 mph 1025.2mb 61f 62f
1:00 3.5ft 6s 9 11 mph 1025.1mb 61f 63f
12:00 3.5ft 8s 9 11 mph 1025.4mb 60f 62f
11:00 4ft 15s 7 9 mph 1025.2mb 60f 63f
10:00 3.5ft 14s 9
mph
1025.2mb 60f 62f
9:00 4ft 8s 11 13 mph 1025mb 60f 61f
8:00 3.5ft 8s 13 16 mph 1024.6mb 60f 62f
7:00 4ft 8s 7 9 mph 1024.4mb 60f 61f
6:00 4ft 8s 9 11 mph 1024.2mb 60f 61f
5:00 3.5ft 8s 7 9 mph 1024mb 60f 62f
4:00 4ft 8s 11 13 mph 1024.2mb 60f 62f
3:00 4ft 15s 9 13 mph 1024.3mb 60f 61f
2:00 4ft 8s 9 11 mph 1024.7mb 60f 62f
1:00 4ft 8s 9
mph
1025mb 60f 61f
12:00 3.5ft 14s 9 13 mph 1025.3mb 60f 62f
ven. 07/22 11:00 3.5ft 14s 4 7 mph 1025.5mb 60f 60f
10:00 3.5ft 8s 4 7 mph 1025.7mb 60f 61f
9:00 3.5ft 8s 9 11 mph 1025.3mb 60f 61f
8:00 3.5ft 8s 11 13 mph 1025.3mb 61f 62f
7:00 3.5ft 9s 7 9 mph 1025.3mb 61f 63f
6:00 3.5ft 8s 9 11 mph 1025.4mb 61f 62f
5:00 3.5ft 8s 7 9 mph 1025.3mb 61f 62f
4:00 3ft 8s 4 7 mph 1025.4mb 61f 63f
3:00 3.5ft 15s 11 13 mph 1025.2mb 61f 61f
2:00 3.5ft 8s 4
mph
1025.2mb 61f 60f
1:00 3.5ft 8s 4 7 mph 1025mb 61f 62f
12:00 3ft 15s 2 4 mph 1024.7mb 60f 60f
11:00 3.5ft 14s 7
mph
1024.1mb 60f 62f
10:00 3.5ft 8s 4 9 mph 1023.7mb 60f 62f
9:00 3.5ft 15s 9 11 mph 1023.2mb 60f 61f
8:00 3.5ft 15s 9 13 mph 1022.9mb 60f 61f
7:00 3.5ft 9s 11 13 mph 1022.3mb 60f 61f
6:00 4ft 8s 13 18 mph 1021.7mb 60f 61f
5:00 3.5ft 15s 16 20 mph 1020.8mb 60f 61f
4:00 3.5ft 8s 13 16 mph 1020.5mb 60f 62f
3:00 3.5ft 8s 16 18 mph 1020.4mb 60f 62f
2:00 4ft 8s 16 18 mph 1020.2mb 60f 62f
1:00 3.5ft 8s 18 20 mph 1019.9mb 60f 62f
12:00 4ft 8s 18 22 mph 1019.7mb 60f 62f
jeu. 07/21 11:00 4ft 8s 18 20 mph 1019.8mb 60f 63f
10:00 4.5ft 8s 18 20 mph 1019.8mb 60f 63f
9:00 4ft 8s 18 22 mph 1019.4mb 60f 63f
8:00 3.5ft 8s 16 20 mph 1019.3mb 60f 63f
7:00 4ft 8s 16 18 mph 1019.4mb 60f 64f
6:00 4ft 8s 16 18 mph 1019.3mb 60f 63f
5:00 3.5ft 9s 13 18 mph 1019.3mb 60f 64f
4:00 3.5ft 8s 13 18 mph 1019.4mb 61f 64f
3:00 3.5ft 8s 13 16 mph 1019.7mb 61f 64f
2:00 3.5ft 8s 13 16 mph 1019.7mb 61f 64f
1:00 3.5ft 8s 11 13 mph 1019.9mb 60f 64f
12:00 3.5ft 8s 11 13 mph 1019.8mb 60f 63f
11:00 3.5ft 8s 9 11 mph 1019.8mb 60f 63f
10:00 4ft 8s 9 11 mph 1019.6mb 60f 63f
9:00 3.5ft 8s 9 11 mph 1019.7mb 60f 63f
8:00 3.5ft 9s 11
mph
1019.5mb 60f 63f
7:00 4ft 9s 9
mph
1019.4mb 60f 63f
6:00 3.5ft 8s 9 11 mph 1019.3mb 60f 62f
5:00 3.5ft 9s 9
mph
1019.1mb 60f 62f
4:00 3.5ft 9s 9 11 mph 1019.1mb 60f 63f
3:00 3.5ft 16s 9
mph
1019.1mb 60f 64f
2:00 3.5ft 9s 9 11 mph 1019.3mb 60f 62f
1:00 3.5ft 8s 9
mph
1019.5mb 60f 62f
12:00 3.5ft 8s 4 7 mph 1019.6mb 60f 64f
mer. 07/20 11:00 4.5ft 8s 4
mph
1019.8mb 60f 63f
10:00 4ft 8s 2 4 mph 1019.9mb 61f 63f
9:00 3.5ft 8s 2 4 mph 1019.9mb 61f 63f
8:00 4ft 8s 2
mph
1020.3mb 62f 65f
7:00 4ft 9s 2
mph
1020.5mb 62f 65f
6:00 4.5ft 9s 2 4 mph 1020.8mb 62f 64f
5:00 3.5ft 8s 4 7 mph 1021mb 61f 63f
4:00 3.5ft 10s 4 7 mph 1021.2mb 61f 62f
3:00 3.5ft 8s 7 9 mph 1020.9mb 60f 62f
2:00 4ft 15s 7 9 mph 1021mb 60f 63f
1:00 3.5ft 9s 9 11 mph 1020.8mb 60f 63f
12:00 3.5ft 15s 11
mph
1020.5mb 60f 62f
11:00 4ft 8s 7 9 mph 1020.3mb 60f 62f
10:00 3.5ft 8s 9
mph
1020.3mb 60f 62f
9:00 4ft 8s 9
mph
1020.3mb 60f 62f
8:00 4ft 8s 7 9 mph 1020mb 60f 62f
7:00 3.5ft 7s 7 9 mph 1019.8mb 60f 62f
6:00 3.5ft 10s 9 13 mph 1019.5mb 59f 61f
5:00 3.5ft 10s 9 11 mph 1019.3mb 59f 62f
4:00 3.5ft 11s 9 11 mph 1019.1mb 59f 63f
3:00 3.5ft 11s 9
mph
1019.1mb 59f 62f
2:00 3.5ft 11s 7 9 mph 1019.4mb 59f 60f
1:00 3.5ft 11s 9 11 mph 1019.5mb 59f 60f
12:00 3.5ft 16s 7 9 mph 1019.4mb 59f 62f